Time;durP1;ratioP1;P1;durP2;ratioP2;P2;SDS_P1;SDS_P2;PMS_P1;PMS_P2;Temp;Humidity;BMP_temperature;BMP_pressure;BME280_temperature;BME280_humidity;BME280_pressure;Samples;Min_cycle;Max_cycle;Signal;HPM_P1;HPM_P2
2021/12/29 00:01:55;;;;;;;6.10;3.35;;;19.20;64.40;;;;;;10413623;28;20515;-56
2021/12/29 00:07:00;;;;;;;5.60;3.28;;;19.20;64.50;;;;;;10413828;28;20410;-56
2021/12/29 00:12:07;;;;;;;5.15;3.08;;;19.20;64.70;;;;;;10414360;28;20061;-55
2021/12/29 00:17:12;;;;;;;4.88;3.08;;;19.10;64.70;;;;;;10414039;28;20067;-54
2021/12/29 00:22:18;;;;;;;6.07;3.08;;;19.10;64.80;;;;;;10414649;28;20057;-56
2021/12/29 00:27:23;;;;;;;5.70;3.30;;;19.10;64.90;;;;;;10413644;28;20140;-55
2021/12/29 00:32:28;;;;;;;8.43;3.40;;;19.10;65.00;;;;;;10395998;28;20111;-55
2021/12/29 00:37:59;;;;;;;4.45;3.15;;;19.00;65.00;;;;;;10400557;28;20467;-54
2021/12/29 00:43:39;;;;;;;7.60;3.17;;;19.00;65.10;;;;;;10339802;28;20459;-54
2021/12/29 00:49:10;;;;;;;5.28;3.33;;;19.00;65.10;;;;;;10413811;28;20046;-55
2021/12/29 00:54:15;;;;;;;7.10;3.25;;;18.90;65.10;;;;;;10396516;28;20486;-55
2021/12/29 00:59:21;;;;;;;10.27;3.33;;;18.90;65.20;;;;;;10412372;28;20049;-55
2021/12/29 01:04:26;;;;;;;4.60;2.90;;;18.90;65.30;;;;;;10412160;28;20053;-55
2021/12/29 01:09:31;;;;;;;5.63;3.30;;;18.90;65.40;;;;;;10412157;28;20424;-55
2021/12/29 01:14:41;;;;;;;5.03;3.35;;;18.80;65.30;;;;;;10411770;28;20057;-55
2021/12/29 01:19:45;;;;;;;5.75;3.60;;;18.80;65.40;;;;;;10411637;28;20049;-55
2021/12/29 01:24:50;;;;;;;4.43;3.47;;;18.80;65.50;;;;;;10411753;28;20045;-56
2021/12/29 01:29:55;;;;;;;5.38;3.65;;;18.70;65.60;;;;;;10411056;28;20049;-55
2021/12/29 01:35:00;;;;;;;6.47;2.70;;;18.70;65.80;;;;;;10411059;28;20494;-55
2021/12/29 01:40:09;;;;;;;4.38;2.72;;;18.70;65.90;;;;;;10411414;28;20063;-56
2021/12/29 01:45:14;;;;;;;8.32;3.50;;;18.70;66.00;;;;;;10411213;28;20037;-55
2021/12/29 01:50:21;;;;;;;7.25;3.22;;;18.70;66.00;;;;;;10410577;28;20486;-56
2021/12/29 01:55:27;;;;;;;6.18;3.38;;;18.60;66.00;;;;;;10410255;28;20057;-56
2021/12/29 02:00:36;;;;;;;4.22;2.67;;;18.60;66.10;;;;;;10410942;28;20057;-56
2021/12/29 02:05:41;;;;;;;;;;;18.50;66.00;;;;;;10411728;28;20118;-54
2021/12/29 02:10:47;;;;;;;4.53;3.00;;;18.50;66.00;;;;;;10410071;28;19933;-52
2021/12/29 02:15:51;;;;;;;10.75;3.33;;;18.50;65.90;;;;;;10420883;28;20049;-57
2021/12/29 02:20:56;;;;;;;6.65;3.92;;;18.50;65.80;;;;;;10409731;28;20173;-57
2021/12/29 02:26:02;;;;;;;6.90;3.63;;;18.50;65.80;;;;;;10410512;28;20053;-57
2021/12/29 02:31:08;;;;;;;8.80;4.10;;;18.40;65.80;;;;;;10410461;28;20409;-56
2021/12/29 02:36:16;;;;;;;8.68;3.58;;;18.40;65.80;;;;;;10409055;28;20455;-57
2021/12/29 02:41:23;;;;;;;8.02;3.40;;;18.40;65.80;;;;;;10409159;28;20045;-57
2021/12/29 02:46:31;;;;;;;7.30;3.83;;;18.30;65.80;;;;;;10409933;28;20057;-56
2021/12/29 02:51:37;;;;;;;4.68;3.30;;;18.30;65.90;;;;;;10409233;28;20052;-56
2021/12/29 02:56:42;;;;;;;6.05;3.40;;;18.30;66.00;;;;;;10414389;28;20542;-56
2021/12/29 03:01:48;;;;;;;10.90;3.55;;;18.30;66.00;;;;;;10447403;28;20041;-56
2021/12/29 03:06:53;;;;;;;8.82;3.78;;;18.30;66.00;;;;;;10406736;28;20539;-56
2021/12/29 03:11:59;;;;;;;12.35;3.92;;;18.20;66.00;;;;;;10368280;28;20049;-56
2021/12/29 03:17:04;;;;;;;8.80;3.80;;;18.20;66.00;;;;;;10367937;28;20061;-56
2021/12/29 03:22:10;;;;;;;7.45;3.72;;;18.30;66.10;;;;;;10367912;28;20162;-56
2021/12/29 03:27:15;;;;;;;23.20;3.38;;;18.20;66.00;;;;;;10374520;28;20061;-56
2021/12/29 03:32:35;;;;;;;8.20;3.92;;;18.20;65.90;;;;;;10374497;28;20046;-56
2021/12/29 03:37:40;;;;;;;8.25;3.17;;;18.20;65.80;;;;;;10373895;28;20119;-56
2021/12/29 03:42:45;;;;;;;4.18;2.50;;;18.10;65.70;;;;;;10373949;28;20054;-57
2021/12/29 03:47:50;;;;;;;4.22;2.00;;;18.10;65.70;;;;;;10374376;28;20139;-57
2021/12/29 03:52:55;;;;;;;3.88;1.33;;;18.10;66.30;;;;;;10373385;28;20050;-57
2021/12/29 03:58:00;;;;;;;1.33;1.05;;;18.10;66.70;;;;;;10373263;28;20491;-56
2021/12/29 04:03:05;;;;;;;1.13;1.02;;;18.10;66.80;;;;;;10383029;28;20413;-54
2021/12/29 04:08:11;;;;;;;2.80;0.90;;;18.00;67.00;;;;;;10413696;28;20072;-56
2021/12/29 04:13:16;;;;;;;3.53;1.15;;;18.10;67.10;;;;;;10413664;28;20050;-56
2021/12/29 04:18:27;;;;;;;1.33;1.15;;;18.10;67.40;;;;;;10414023;28;20049;-57
2021/12/29 04:23:34;;;;;;;3.03;1.30;;;18.20;67.40;;;;;;10413210;28;20451;-56
2021/12/29 04:28:39;;;;;;;11.80;1.70;;;18.30;67.40;;;;;;10413618;28;20066;-56
2021/12/29 04:33:44;;;;;;;10.00;1.75;;;18.40;67.40;;;;;;10430831;28;20097;-55
2021/12/29 04:38:49;;;;;;;3.70;1.40;;;18.50;67.40;;;;;;10454782;28;20052;-56
2021/12/29 04:43:55;;;;;;;2.55;1.65;;;18.70;67.90;;;;;;10453431;28;20074;-55
2021/12/29 04:49:01;;;;;;;5.75;1.60;;;18.80;67.10;;;;;;10454392;28;20101;-56
2021/12/29 04:54:07;;;;;;;7.70;1.58;;;18.80;66.90;;;;;;10454315;28;20375;-55
2021/12/29 04:59:14;;;;;;;5.07;1.80;;;19.00;66.70;;;;;;10453931;28;20052;-57
2021/12/29 05:04:23;;;;;;;5.78;1.73;;;19.10;66.40;;;;;;10454114;27;20566;-56
2021/12/29 05:09:27;;;;;;;1.90;1.60;;;19.20;66.30;;;;;;10453520;28;20485;-56
2021/12/29 05:14:32;;;;;;;3.20;1.73;;;19.30;66.30;;;;;;10436312;28;20098;-56
2021/12/29 05:19:37;;;;;;;2.47;1.50;;;19.40;66.20;;;;;;10453177;28;20401;-56
2021/12/29 05:24:41;;;;;;;3.38;2.33;;;19.50;66.10;;;;;;10453137;28;20049;-56
2021/12/29 05:29:46;;;;;;;4.40;2.00;;;19.50;65.90;;;;;;10452810;28;20041;-57
2021/12/29 05:34:51;;;;;;;5.95;2.15;;;19.60;65.80;;;;;;10452092;28;20053;-56
2021/12/29 05:39:55;;;;;;;3.97;2.15;;;19.60;65.70;;;;;;10453921;28;20097;-56
2021/12/29 05:45:05;;;;;;;3.17;2.05;;;19.70;65.60;;;;;;10452405;28;20057;-56
2021/12/29 05:50:15;;;;;;;6.68;2.13;;;19.80;65.60;;;;;;10451886;28;20053;-56
2021/12/29 05:55:19;;;;;;;3.65;2.08;;;19.90;65.50;;;;;;10452064;28;20401;-56
2021/12/29 06:00:26;;;;;;;2.80;2.10;;;19.90;65.30;;;;;;10452061;28;20443;-55
2021/12/29 06:05:30;;;;;;;5.78;2.35;;;19.90;65.30;;;;;;10404683;28;20057;-56
2021/12/29 06:10:35;;;;;;;5.53;1.90;;;19.90;65.20;;;;;;10406798;28;20130;-56
2021/12/29 06:15:40;;;;;;;2.90;1.98;;;20.00;65.40;;;;;;10410140;28;20075;-55
2021/12/29 06:20:45;;;;;;;9.23;2.20;;;19.90;65.40;;;;;;10410572;28;20049;-56
2021/12/29 06:25:50;;;;;;;12.52;2.30;;;19.90;65.40;;;;;;10409349;28;20407;-56
2021/12/29 06:30:55;;;;;;;5.43;1.75;;;19.90;65.40;;;;;;10409414;28;20049;-56
2021/12/29 06:36:00;;;;;;;4.85;2.35;;;19.80;65.30;;;;;;10409028;28;20057;-56
2021/12/29 06:41:05;;;;;;;3.67;2.25;;;19.90;65.30;;;;;;10409414;28;20053;-56
2021/12/29 06:46:10;;;;;;;4.80;2.05;;;19.90;65.20;;;;;;10408935;28;20114;-56
2021/12/29 06:51:15;;;;;;;5.18;2.35;;;19.80;65.30;;;;;;10409637;28;20410;-56
2021/12/29 06:56:20;;;;;;;3.78;2.42;;;19.80;65.30;;;;;;10410159;28;20075;-56
2021/12/29 07:01:25;;;;;;;4.20;2.20;;;19.80;65.30;;;;;;10416055;28;20046;-56
2021/12/29 07:06:30;;;;;;;17.40;10.73;;;19.70;65.30;;;;;;10453930;28;20049;-59
2021/12/29 07:11:36;;;;;;;15.55;8.63;;;19.60;60.60;;;;;;10457229;28;20045;-56
2021/12/29 07:16:44;;;;;;;29.75;6.03;;;19.20;62.50;;;;;;10457991;28;20081;-56
2021/12/29 07:21:49;;;;;;;17.23;5.00;;;19.20;62.80;;;;;;10456833;28;20052;-57
2021/12/29 07:26:54;;;;;;;9.63;4.30;;;19.20;62.70;;;;;;10456496;28;20079;-56
2021/12/29 07:31:59;;;;;;;5.38;3.97;;;19.20;62.60;;;;;;10455952;28;20045;-56
2021/12/29 07:37:04;;;;;;;12.52;4.75;;;19.30;62.60;;;;;;10457831;28;20094;-57
2021/12/29 07:42:09;;;;;;;7.65;4.18;;;19.20;62.70;;;;;;10455749;28;20053;-56
2021/12/29 07:47:19;;;;;;;11.02;4.25;;;19.20;62.90;;;;;;10438720;28;20045;-57
2021/12/29 07:52:24;;;;;;;6.65;3.70;;;19.20;63.00;;;;;;10455579;28;20510;-56
2021/12/29 07:57:29;;;;;;;6.30;4.00;;;19.20;63.10;;;;;;10455932;28;20041;-56
2021/12/29 08:02:35;;;;;;;6.80;3.85;;;19.20;63.20;;;;;;10455671;27;20052;-56
2021/12/29 08:07:41;;;;;;;6.68;3.58;;;19.10;63.30;;;;;;10455769;28;20041;-56
2021/12/29 08:12:45;;;;;;;7.43;3.70;;;19.10;63.40;;;;;;10455548;28;20049;-56
2021/12/29 08:17:50;;;;;;;7.45;3.53;;;19.00;63.40;;;;;;10455600;28;20446;-55
2021/12/29 08:22:55;;;;;;;5.72;3.10;;;19.00;63.60;;;;;;10455582;28;20113;-55
2021/12/29 08:28:00;;;;;;;6.10;4.03;;;19.00;63.60;;;;;;10454238;28;20078;-56
2021/12/29 08:33:05;;;;;;;4.60;3.20;;;18.90;63.60;;;;;;10454759;28;20043;-56
2021/12/29 08:38:10;;;;;;;7.05;3.40;;;18.90;63.70;;;;;;10455237;28;20041;-56
2021/12/29 08:43:16;;;;;;;7.20;3.90;;;18.90;63.80;;;;;;10453833;28;20566;-56
2021/12/29 08:48:21;;;;;;;7.47;3.15;;;18.90;64.40;;;;;;10454332;28;20041;-57
2021/12/29 08:53:27;;;;;;;8.48;3.80;;;18.90;63.90;;;;;;10455097;28;20041;-57
2021/12/29 08:58:32;;;;;;;6.20;3.33;;;18.80;63.90;;;;;;10454140;28;20045;-57
2021/12/29 09:03:38;;;;;;;9.68;3.47;;;18.80;64.00;;;;;;10453296;27;20049;-56
2021/12/29 09:08:44;;;;;;;11.50;4.55;;;18.70;63.90;;;;;;10453713;28;20549;-56
2021/12/29 09:13:49;;;;;;;5.47;3.45;;;18.70;64.00;;;;;;10436766;28;20070;-56
2021/12/29 09:18:55;;;;;;;7.40;3.20;;;18.70;64.10;;;;;;10453531;28;20048;-56
2021/12/29 09:24:00;;;;;;;8.65;3.33;;;18.60;64.20;;;;;;10452855;28;20066;-56
2021/12/29 09:29:06;;;;;;;10.65;3.85;;;18.60;64.30;;;;;;10453367;28;20098;-56
2021/12/29 09:34:12;;;;;;;16.23;3.72;;;18.60;64.40;;;;;;10452938;28;20048;-55
2021/12/29 09:39:16;;;;;;;14.90;3.45;;;18.60;64.50;;;;;;10451851;28;20081;-57
2021/12/29 09:44:22;;;;;;;9.35;3.90;;;18.60;64.50;;;;;;10451856;28;20049;-57
2021/12/29 09:49:27;;;;;;;9.38;3.10;;;18.60;64.60;;;;;;10452538;28;20090;-56
2021/12/29 09:54:32;;;;;;;5.32;2.38;;;18.70;64.60;;;;;;10451909;28;20049;-57
2021/12/29 09:59:37;;;;;;;5.93;1.60;;;18.80;64.70;;;;;;10434162;28;20053;-56
2021/12/29 10:04:46;;;;;;;7.75;2.20;;;18.80;64.70;;;;;;10451146;27;20452;-57
2021/12/29 10:09:51;;;;;;;6.53;2.72;;;18.90;64.70;;;;;;10447761;28;20090;-56
2021/12/29 10:14:59;;;;;;;7.32;2.38;;;19.00;64.60;;;;;;10434707;28;20485;-55
2021/12/29 10:20:15;;;;;;;6.47;1.90;;;19.20;64.40;;;;;;10451926;28;20392;-56
2021/12/29 10:25:24;;;;;;;5.93;2.58;;;19.30;64.30;;;;;;10410403;28;20099;-56
2021/12/29 10:30:31;;;;;;;2.67;2.00;;;19.40;64.10;;;;;;10410124;28;20535;-55
2021/12/29 10:35:35;;;;;;;6.22;2.40;;;19.50;64.00;;;;;;10409131;28;20106;-55
2021/12/29 10:40:40;;;;;;;5.03;2.30;;;19.60;64.00;;;;;;10409712;28;20058;-55
2021/12/29 10:45:46;;;;;;;5.68;2.53;;;19.60;63.90;;;;;;10409754;28;20053;-55
2021/12/29 10:50:55;;;;;;;4.78;2.50;;;19.70;63.80;;;;;;10414457;28;20045;-55
2021/12/29 10:56:02;;;;;;;3.95;2.35;;;19.70;63.80;;;;;;10449821;28;20049;-55
2021/12/29 11:01:13;;;;;;;4.22;2.40;;;19.80;63.80;;;;;;10450696;28;20049;-54
2021/12/29 11:06:21;;;;;;;2.92;2.38;;;19.80;63.70;;;;;;10450490;27;20438;-56
2021/12/29 11:11:40;;;;;;;5.15;2.58;;;19.70;63.70;;;;;;10449312;28;20110;-53
2021/12/29 11:16:53;;;;;;;4.65;2.70;;;19.70;63.70;;;;;;10450280;28;20102;-56
2021/12/29 11:22:12;;;;;;;6.22;2.88;;;19.80;63.80;;;;;;10449195;28;20071;-55
2021/12/29 11:27:19;;;;;;;6.18;2.88;;;19.80;63.90;;;;;;10449785;28;20417;-55
2021/12/29 11:32:28;;;;;;;4.75;2.78;;;19.80;64.00;;;;;;10449439;28;20442;-54
2021/12/29 11:37:34;;;;;;;3.22;2.45;;;19.70;63.90;;;;;;10448856;28;20102;-55
2021/12/29 11:42:39;;;;;;;7.00;3.00;;;19.70;63.90;;;;;;10451178;28;20045;-55
2021/12/29 11:47:45;;;;;;;4.85;3.00;;;19.70;64.00;;;;;;10456872;28;20041;-54
2021/12/29 11:53:08;;;;;;;6.07;2.50;;;19.70;64.00;;;;;;10454643;28;20049;-54
2021/12/29 11:58:23;;;;;;;5.32;3.25;;;19.70;64.10;;;;;;10455215;28;20102;-54
2021/12/29 12:03:41;;;;;;;6.30;3.20;;;19.70;64.10;;;;;;10455599;27;20045;-55
2021/12/29 12:08:46;;;;;;;9.02;3.50;;;19.60;64.10;;;;;;10455689;28;20374;-55
2021/12/29 12:13:52;;;;;;;5.95;3.20;;;19.60;64.10;;;;;;10455449;28;20041;-55
2021/12/29 12:18:59;;;;;;;7.47;3.25;;;19.60;64.10;;;;;;10454719;28;20097;-55
2021/12/29 12:24:10;;;;;;;5.32;3.80;;;19.60;64.10;;;;;;10455382;28;20049;-53
2021/12/29 12:29:15;;;;;;;6.13;3.58;;;19.50;64.10;;;;;;10455260;28;20101;-54
2021/12/29 12:34:22;;;;;;;11.55;4.60;;;19.50;64.10;;;;;;10454724;28;20090;-55
2021/12/29 12:39:28;;;;;;;9.93;4.20;;;19.50;64.10;;;;;;10453749;28;20049;-55
2021/12/29 12:44:36;;;;;;;6.10;3.58;;;19.50;64.20;;;;;;10436445;28;20057;-54
2021/12/29 12:49:47;;;;;;;7.67;3.70;;;19.50;64.20;;;;;;10454447;28;20094;-55
2021/12/29 12:54:56;;;;;;;4.90;3.22;;;19.50;64.20;;;;;;10453426;28;20049;-53
2021/12/29 13:00:11;;;;;;;5.40;3.80;;;19.40;64.20;;;;;;10454500;28;20045;-55
2021/12/29 13:05:26;;;;;;;6.18;4.00;;;19.40;64.30;;;;;;10453918;27;20079;-55
2021/12/29 13:10:35;;;;;;;8.55;3.78;;;19.40;64.40;;;;;;10453065;28;20065;-54
2021/12/29 13:15:42;;;;;;;6.00;4.03;;;19.50;64.50;;;;;;10453941;28;20053;-55
2021/12/29 13:20:48;;;;;;;7.20;4.10;;;19.50;64.40;;;;;;10452788;28;20096;-56
2021/12/29 13:25:56;;;;;;;15.90;6.43;;;19.60;64.40;;;;;;10452592;28;20074;-55
2021/12/29 13:31:05;;;;;;;27.20;6.47;;;19.60;64.10;;;;;;10453623;28;20070;-56
2021/12/29 13:36:11;;;;;;;13.30;7.45;;;19.70;63.50;;;;;;10452300;28;20053;-55
2021/12/29 13:41:22;;;;;;;15.13;7.57;;;19.90;62.80;;;;;;10453064;28;20079;-54
2021/12/29 13:46:31;;;;;;;14.50;7.28;;;19.90;62.80;;;;;;10451439;28;20049;-54
2021/12/29 13:51:38;;;;;;;18.23;8.60;;;19.90;62.60;;;;;;10450415;28;20049;-56
2021/12/29 13:56:48;;;;;;;19.30;9.87;;;20.10;62.30;;;;;;10452114;28;20074;-54
2021/12/29 14:02:01;;;;;;;16.70;9.95;;;20.20;61.80;;;;;;10451602;28;20053;-54
2021/12/29 14:07:09;;;;;;;16.20;8.93;;;20.30;61.50;;;;;;10451561;28;20052;-55
2021/12/29 14:12:25;;;;;;;17.02;9.85;;;20.20;61.90;;;;;;10451703;28;20405;-56
2021/12/29 14:17:38;;;;;;;20.73;11.10;;;20.30;61.50;;;;;;10434556;28;20049;-54
2021/12/29 14:22:43;;;;;;;22.38;11.68;;;20.40;61.20;;;;;;10451390;28;20045;-53
2021/12/29 14:28:17;;;;;;;21.23;11.35;;;20.50;61.00;;;;;;10450653;28;20402;-54
2021/12/29 14:33:34;;;;;;;26.10;12.82;;;20.50;61.00;;;;;;10450410;28;20140;-54
2021/12/29 14:38:40;;;;;;;22.05;12.40;;;20.60;60.80;;;;;;10451847;28;20053;-53
2021/12/29 14:43:57;;;;;;;26.27;14.07;;;20.70;60.70;;;;;;10450752;28;20489;-55
2021/12/29 14:49:05;;;;;;;27.45;15.32;;;20.70;60.50;;;;;;10450820;28;20105;-51
2021/12/29 14:54:13;;;;;;;31.30;14.90;;;20.80;60.50;;;;;;10449848;28;20074;-53
2021/12/29 14:59:17;;;;;;;26.17;15.00;;;20.80;60.40;;;;;;10449954;28;20048;-53
2021/12/29 15:04:29;;;;;;;29.20;15.48;;;20.80;60.40;;;;;;10450330;27;20094;-55
2021/12/29 15:09:33;;;;;;;33.33;16.30;;;20.90;60.40;;;;;;10449671;28;20090;-54
2021/12/29 15:14:38;;;;;;;33.38;17.27;;;20.90;60.30;;;;;;10447286;28;20378;-54
2021/12/29 15:19:43;;;;;;;36.60;17.17;;;20.90;60.50;;;;;;10449657;28;20045;-55
2021/12/29 15:24:48;;;;;;;39.35;17.92;;;20.80;60.70;;;;;;10452242;28;20049;-55
2021/12/29 15:29:53;;;;;;;32.72;18.30;;;20.70;60.70;;;;;;10455379;28;20074;-54
2021/12/29 15:34:58;;;;;;;34.45;18.60;;;20.70;60.70;;;;;;10422864;28;20049;-56
2021/12/29 15:40:07;;;;;;;36.15;20.23;;;20.70;60.60;;;;;;10422711;28;20057;-55
2021/12/29 15:45:13;;;;;;;;;;;20.70;60.60;;;;;;10422891;28;20053;-55
2021/12/29 15:50:21;;;;;;;40.28;19.85;;;20.70;60.60;;;;;;10455847;28;20426;-56
2021/12/29 15:55:27;;;;;;;37.95;19.77;;;20.60;60.60;;;;;;10438491;28;20052;-55
2021/12/29 16:00:34;;;;;;;40.78;21.95;;;20.70;60.60;;;;;;10439834;28;20071;-56
2021/12/29 16:05:40;;;;;;;42.97;21.40;;;20.60;60.60;;;;;;10456627;28;20045;-56
2021/12/29 16:10:44;;;;;;;37.88;20.50;;;20.60;60.60;;;;;;10422427;28;20486;-56
2021/12/29 16:15:50;;;;;;;42.50;21.55;;;20.60;60.60;;;;;;10454840;28;20144;-56
2021/12/29 16:20:55;;;;;;;39.15;21.70;;;20.50;60.60;;;;;;10437109;28;20501;-56
2021/12/29 16:26:01;;;;;;;38.50;21.85;;;20.50;60.50;;;;;;10437768;28;20041;-56
2021/12/29 16:31:08;;;;;;;39.70;22.35;;;20.50;60.50;;;;;;10436978;28;20417;-56
2021/12/29 16:36:13;;;;;;;42.78;23.38;;;20.50;60.50;;;;;;10454766;28;20045;-54
2021/12/29 16:41:17;;;;;;;49.85;23.75;;;20.40;60.50;;;;;;10454531;28;20066;-56
2021/12/29 16:46:22;;;;;;;45.50;24.92;;;20.40;60.50;;;;;;10405060;28;20056;-55
2021/12/29 16:51:28;;;;;;;49.80;24.38;;;20.40;60.50;;;;;;10450113;28;20045;-54
2021/12/29 16:56:34;;;;;;;53.67;25.17;;;20.30;60.70;;;;;;10452949;28;20045;-54
2021/12/29 17:01:40;;;;;;;51.85;25.38;;;20.20;60.70;;;;;;10453971;28;20041;-55
2021/12/29 17:06:46;;;;;;;42.63;21.77;;;20.10;60.80;;;;;;10435881;28;20466;-56
2021/12/29 17:11:51;;;;;;;49.58;24.00;;;20.10;60.90;;;;;;10435728;28;20049;-56
2021/12/29 17:16:57;;;;;;;53.70;25.77;;;20.00;60.90;;;;;;10435383;28;20041;-56
2021/12/29 17:22:07;;;;;;;71.85;29.13;;;20.00;61.00;;;;;;10435758;28;20094;-55
2021/12/29 17:27:11;;;;;;;56.30;28.67;;;19.90;61.10;;;;;;10453175;28;20090;-56
2021/12/29 17:32:16;;;;;;;62.63;29.33;;;20.00;61.20;;;;;;10436780;28;20053;-55
2021/12/29 17:37:21;;;;;;;64.47;31.20;;;20.00;61.20;;;;;;10452588;28;20053;-54
2021/12/29 17:42:28;;;;;;;74.28;31.58;;;20.00;61.20;;;;;;10433675;28;20066;-56
2021/12/29 17:47:33;;;;;;;72.40;33.70;;;20.10;61.10;;;;;;10453472;28;20181;-54
2021/12/29 17:52:38;;;;;;;61.10;30.77;;;20.20;61.10;;;;;;10452651;28;20049;-54
2021/12/29 17:57:43;;;;;;;58.58;29.65;;;20.20;61.10;;;;;;10451393;28;20057;-51
2021/12/29 18:02:49;;;;;;;48.95;26.13;;;20.20;61.10;;;;;;10452144;27;20105;-54
2021/12/29 18:07:55;;;;;;;51.30;26.25;;;20.20;61.00;;;;;;10452207;28;20053;-55
2021/12/29 18:13:00;;;;;;;49.17;25.08;;;20.10;60.90;;;;;;10360194;28;20563;-54
2021/12/29 18:18:07;;;;;;;44.63;23.05;;;20.10;60.90;;;;;;10365381;28;20061;-55
2021/12/29 18:23:11;;;;;;;46.85;23.77;;;20.10;60.80;;;;;;10365528;28;20114;-55
2021/12/29 18:28:17;;;;;;;40.47;22.25;;;20.10;60.80;;;;;;10332865;28;20115;-53
2021/12/29 18:33:22;;;;;;;39.28;22.42;;;20.10;60.80;;;;;;10333497;28;20578;-55
2021/12/29 18:38:26;;;;;;;43.10;22.45;;;20.10;60.70;;;;;;10411668;28;20061;-55
2021/12/29 18:43:31;;;;;;;41.28;20.98;;;20.10;60.70;;;;;;10432736;28;20060;-55
2021/12/29 18:48:36;;;;;;;39.97;21.08;;;20.10;60.60;;;;;;10449910;28;20450;-55
2021/12/29 18:53:40;;;;;;;39.25;21.40;;;20.10;60.60;;;;;;10432206;28;20049;-55
2021/12/29 18:58:45;;;;;;;40.22;21.00;;;20.10;60.60;;;;;;10449842;28;20109;-55
2021/12/29 19:03:50;;;;;;;40.50;21.33;;;20.00;60.50;;;;;;10432598;27;20105;-55
2021/12/29 19:08:58;;;;;;;37.50;20.08;;;20.00;60.50;;;;;;10384607;28;20106;-56
2021/12/29 19:14:03;;;;;;;35.10;19.70;;;20.00;60.50;;;;;;10431778;28;20114;-54
2021/12/29 19:19:09;;;;;;;32.83;18.88;;;20.00;60.50;;;;;;10450615;28;20053;-56
2021/12/29 19:24:14;;;;;;;40.47;19.40;;;19.90;60.40;;;;;;10416131;28;20045;-55
2021/12/29 19:29:19;;;;;;;33.63;19.52;;;19.90;60.40;;;;;;10432495;28;20097;-56
2021/12/29 19:34:35;;;;;;;33.45;19.35;;;19.90;60.40;;;;;;10449344;28;20041;-55
2021/12/29 19:39:40;;;;;;;35.05;19.05;;;19.80;60.40;;;;;;10449314;28;20113;-56
2021/12/29 19:44:46;;;;;;;32.53;18.10;;;19.80;60.40;;;;;;10449149;28;20405;-56
2021/12/29 19:49:52;;;;;;;34.47;18.60;;;19.80;60.40;;;;;;10431092;28;20383;-55
2021/12/29 19:54:58;;;;;;;29.90;17.45;;;19.80;60.50;;;;;;10449461;28;20409;-54
2021/12/29 20:00:15;;;;;;;32.28;17.25;;;19.80;60.80;;;;;;10448415;28;20118;-53
2021/12/29 20:05:21;;;;;;;33.50;19.13;;;19.70;60.80;;;;;;10452290;28;20060;-56
2021/12/29 20:10:27;;;;;;;31.45;18.23;;;19.70;60.90;;;;;;10455877;28;20090;-55
2021/12/29 20:15:31;;;;;;;33.42;18.23;;;19.60;60.90;;;;;;10455473;28;20045;-55
2021/12/29 20:20:37;;;;;;;31.20;17.23;;;19.60;61.00;;;;;;10455472;28;20505;-56
2021/12/29 20:25:43;;;;;;;31.83;19.03;;;19.60;61.00;;;;;;10451318;28;20062;-55
2021/12/29 20:30:49;;;;;;;37.42;19.73;;;19.50;61.10;;;;;;10421456;28;20053;-55
2021/12/29 20:35:55;;;;;;;33.95;19.98;;;19.50;61.00;;;;;;10453126;28;20045;-54
2021/12/29 20:41:00;;;;;;;37.88;19.80;;;19.50;60.90;;;;;;10451512;28;20098;-54
2021/12/29 20:46:05;;;;;;;34.90;19.25;;;19.50;60.60;;;;;;10454022;28;20044;-54
2021/12/29 20:51:11;;;;;;;36.13;20.55;;;19.50;60.40;;;;;;10454772;28;20417;-55
2021/12/29 20:56:16;;;;;;;40.22;20.67;;;19.60;60.30;;;;;;10450637;28;20066;-53
2021/12/29 21:01:21;;;;;;;40.00;22.73;;;19.60;60.40;;;;;;10435633;28;20052;-56
2021/12/29 21:06:26;;;;;;;39.13;22.77;;;19.70;60.50;;;;;;10453443;27;20098;-55
2021/12/29 21:11:31;;;;;;;40.35;23.20;;;19.80;60.50;;;;;;10454023;28;20394;-56
2021/12/29 21:16:36;;;;;;;43.83;22.98;;;19.80;60.40;;;;;;10452106;28;20045;-55
2021/12/29 21:21:42;;;;;;;38.55;22.63;;;19.90;60.40;;;;;;10436705;28;20045;-55
2021/12/29 21:26:47;;;;;;;41.10;22.52;;;19.90;60.30;;;;;;10435334;28;20485;-54
2021/12/29 21:31:51;;;;;;;39.08;22.40;;;20.00;60.20;;;;;;10436627;28;20383;-55
2021/12/29 21:36:56;;;;;;;40.95;22.77;;;20.00;60.10;;;;;;10435477;28;20078;-56
2021/12/29 21:42:01;;;;;;;36.80;21.92;;;20.00;60.00;;;;;;10435891;28;20045;-54
2021/12/29 21:47:06;;;;;;;40.45;24.20;;;19.90;60.00;;;;;;10434917;28;20070;-54
2021/12/29 21:52:11;;;;;;;41.95;22.48;;;19.90;60.00;;;;;;10435273;28;20060;-54
2021/12/29 21:57:31;;;;;;;39.78;22.35;;;19.90;59.90;;;;;;10417676;28;20049;-54
2021/12/29 22:02:36;;;;;;;34.00;20.33;;;19.90;59.80;;;;;;10434414;28;20053;-54
2021/12/29 22:07:42;;;;;;;36.60;21.25;;;19.90;59.70;;;;;;10434783;28;20390;-53
2021/12/29 22:12:47;;;;;;;41.75;21.92;;;19.90;59.70;;;;;;10451266;28;20095;-55
2021/12/29 22:17:52;;;;;;;38.03;21.30;;;19.80;59.60;;;;;;10451738;28;20049;-55
2021/12/29 22:23:02;;;;;;;38.55;22.05;;;19.90;59.50;;;;;;10433879;28;20093;-54
2021/12/29 22:28:07;;;;;;;37.50;21.48;;;19.90;59.40;;;;;;10451283;28;20048;-54
2021/12/29 22:33:13;;;;;;;36.47;21.35;;;19.80;59.40;;;;;;10451447;28;20105;-55
2021/12/29 22:38:19;;;;;;;33.38;20.35;;;19.80;59.40;;;;;;10450470;28;20049;-55
2021/12/29 22:43:27;;;;;;;33.17;19.20;;;19.80;59.50;;;;;;10450453;28;20090;-53
2021/12/29 22:48:32;;;;;;;32.80;19.38;;;19.70;59.50;;;;;;10449286;28;20049;-52
2021/12/29 22:53:37;;;;;;;30.95;18.52;;;19.70;59.50;;;;;;10450127;28;20485;-55
2021/12/29 22:58:42;;;;;;;31.55;18.10;;;19.60;59.60;;;;;;10450581;28;20045;-54
2021/12/29 23:03:48;;;;;;;29.98;17.52;;;19.60;59.70;;;;;;10416442;28;20078;-54
2021/12/29 23:08:54;;;;;;;30.75;17.60;;;19.60;59.80;;;;;;10450164;28;20045;-54
2021/12/29 23:14:06;;;;;;;26.73;15.60;;;19.50;59.80;;;;;;10433255;28;20105;-53
2021/12/29 23:19:14;;;;;;;27.95;16.10;;;19.50;59.80;;;;;;10449809;28;20082;-56
2021/12/29 23:24:22;;;;;;;25.43;14.77;;;19.50;60.00;;;;;;10431795;28;20117;-54
2021/12/29 23:29:27;;;;;;;;;;;19.50;60.20;;;;;;10433449;28;20078;-53
2021/12/29 23:34:33;;;;;;;25.10;14.73;;;19.40;60.20;;;;;;10449469;28;19928;-55
2021/12/29 23:39:38;;;;;;;24.45;14.07;;;19.40;60.20;;;;;;10450014;28;20052;-57
2021/12/29 23:44:43;;;;;;;27.13;14.20;;;19.40;60.30;;;;;;10436063;28;20053;-55
2021/12/29 23:49:48;;;;;;;28.75;16.27;;;19.40;60.20;;;;;;10456170;28;20559;-54
2021/12/29 23:54:54;;;;;;;39.45;16.60;;;19.30;60.10;;;;;;10455693;28;20383;-56
2021/12/29 23:59:59;;;;;;;33.75;16.25;;;19.20;60.20;;;;;;10455521;28;20464;-57
